sensor_id;sensor_type;location;lat;lon;timestamp;P1;durP1;ratioP1;P2;durP2;ratioP2
35693;SDS011;21812;55.536;37.664;2023-02-28T00:00:31;6.63;;;3.40;;
35693;SDS011;21812;55.536;37.664;2023-02-28T00:02:57;4.67;;;3.17;;
35693;SDS011;21812;55.536;37.664;2023-02-28T00:05:24;5.50;;;3.00;;
35693;SDS011;21812;55.536;37.664;2023-02-28T00:07:51;5.63;;;3.20;;
35693;SDS011;21812;55.536;37.664;2023-02-28T00:10:24;6.67;;;3.90;;
35693;SDS011;21812;55.536;37.664;2023-02-28T00:12:53;5.63;;;3.53;;
35693;SDS011;21812;55.536;37.664;2023-02-28T00:15:22;7.37;;;3.70;;
35693;SDS011;21812;55.536;37.664;2023-02-28T00:17:48;5.63;;;3.70;;
35693;SDS011;21812;55.536;37.664;2023-02-28T00:20:14;5.70;;;3.40;;
35693;SDS011;21812;55.536;37.664;2023-02-28T00:22:41;5.87;;;3.23;;
35693;SDS011;21812;55.536;37.664;2023-02-28T00:25:10;5.87;;;3.80;;
35693;SDS011;21812;55.536;37.664;2023-02-28T00:27:38;6.23;;;3.90;;
35693;SDS011;21812;55.536;37.664;2023-02-28T00:30:05;6.57;;;3.77;;
35693;SDS011;21812;55.536;37.664;2023-02-28T00:32:32;6.47;;;3.43;;
35693;SDS011;21812;55.536;37.664;2023-02-28T00:35:00;3.97;;;2.70;;
35693;SDS011;21812;55.536;37.664;2023-02-28T00:37:26;5.60;;;3.63;;
35693;SDS011;21812;55.536;37.664;2023-02-28T00:39:51;5.50;;;3.47;;
35693;SDS011;21812;55.536;37.664;2023-02-28T00:42:17;6.37;;;3.93;;
35693;SDS011;21812;55.536;37.664;2023-02-28T00:44:43;6.67;;;3.83;;
35693;SDS011;21812;55.536;37.664;2023-02-28T00:47:10;6.20;;;3.77;;
35693;SDS011;21812;55.536;37.664;2023-02-28T00:49:36;6.43;;;4.10;;
35693;SDS011;21812;55.536;37.664;2023-02-28T00:52:01;5.47;;;3.40;;
35693;SDS011;21812;55.536;37.664;2023-02-28T00:54:28;7.10;;;3.93;;
35693;SDS011;21812;55.536;37.664;2023-02-28T00:56:53;6.60;;;4.00;;
35693;SDS011;21812;55.536;37.664;2023-02-28T00:59:19;6.70;;;3.70;;
35693;SDS011;21812;55.536;37.664;2023-02-28T01:01:45;5.27;;;3.20;;
35693;SDS011;21812;55.536;37.664;2023-02-28T01:04:11;6.83;;;3.20;;
35693;SDS011;21812;55.536;37.664;2023-02-28T01:06:37;7.00;;;4.40;;
35693;SDS011;21812;55.536;37.664;2023-02-28T01:09:04;5.30;;;3.50;;
35693;SDS011;21812;55.536;37.664;2023-02-28T01:11:31;5.90;;;3.33;;
35693;SDS011;21812;55.536;37.664;2023-02-28T01:13:57;5.57;;;3.50;;
35693;SDS011;21812;55.536;37.664;2023-02-28T01:16:23;8.27;;;4.30;;
35693;SDS011;21812;55.536;37.664;2023-02-28T01:18:49;7.03;;;3.83;;
35693;SDS011;21812;55.536;37.664;2023-02-28T01:21:16;3.37;;;3.03;;
35693;SDS011;21812;55.536;37.664;2023-02-28T01:23:44;6.57;;;3.27;;
35693;SDS011;21812;55.536;37.664;2023-02-28T01:26:11;7.60;;;3.77;;
35693;SDS011;21812;55.536;37.664;2023-02-28T01:28:39;6.17;;;3.57;;
35693;SDS011;21812;55.536;37.664;2023-02-28T01:31:06;8.50;;;4.07;;
35693;SDS011;21812;55.536;37.664;2023-02-28T01:33:33;7.40;;;3.87;;
35693;SDS011;21812;55.536;37.664;2023-02-28T01:35:59;5.40;;;2.90;;
35693;SDS011;21812;55.536;37.664;2023-02-28T01:38:25;6.53;;;4.07;;
35693;SDS011;21812;55.536;37.664;2023-02-28T01:40:53;5.87;;;3.53;;
35693;SDS011;21812;55.536;37.664;2023-02-28T01:43:26;7.83;;;3.80;;
35693;SDS011;21812;55.536;37.664;2023-02-28T01:46:17;7.33;;;3.77;;
35693;SDS011;21812;55.536;37.664;2023-02-28T01:48:47;7.43;;;4.43;;
35693;SDS011;21812;55.536;37.664;2023-02-28T01:54:21;6.35;;;4.32;;
35693;SDS011;21812;55.536;37.664;2023-02-28T01:56:54;6.57;;;3.60;;
35693;SDS011;21812;55.536;37.664;2023-02-28T01:59:28;5.83;;;3.70;;
35693;SDS011;21812;55.536;37.664;2023-02-28T02:01:58;5.00;;;3.83;;
35693;SDS011;21812;55.536;37.664;2023-02-28T02:04:26;5.90;;;4.00;;
35693;SDS011;21812;55.536;37.664;2023-02-28T02:06:57;5.50;;;3.33;;
35693;SDS011;21812;55.536;37.664;2023-02-28T02:09:23;6.70;;;3.87;;
35693;SDS011;21812;55.536;37.664;2023-02-28T02:11:51;6.00;;;3.83;;
35693;SDS011;21812;55.536;37.664;2023-02-28T02:14:30;5.87;;;3.93;;
35693;SDS011;21812;55.536;37.664;2023-02-28T02:39:46;4.30;;;2.70;;
35693;SDS011;21812;55.536;37.664;2023-02-28T02:42:30;5.20;;;2.70;;
35693;SDS011;21812;55.536;37.664;2023-02-28T02:47:53;4.40;;;2.83;;
35693;SDS011;21812;55.536;37.664;2023-02-28T02:50:26;4.23;;;2.87;;
35693;SDS011;21812;55.536;37.664;2023-02-28T02:52:58;7.53;;;3.00;;
35693;SDS011;21812;55.536;37.664;2023-02-28T02:55:29;6.50;;;3.60;;
35693;SDS011;21812;55.536;37.664;2023-02-28T02:57:59;7.13;;;3.60;;
35693;SDS011;21812;55.536;37.664;2023-02-28T03:00:30;5.97;;;3.10;;
35693;SDS011;21812;55.536;37.664;2023-02-28T03:02:59;7.53;;;3.33;;
35693;SDS011;21812;55.536;37.664;2023-02-28T03:05:32;6.03;;;2.77;;
35693;SDS011;21812;55.536;37.664;2023-02-28T03:08:04;8.97;;;3.07;;
35693;SDS011;21812;55.536;37.664;2023-02-28T03:21:52;4.20;;;2.70;;
35693;SDS011;21812;55.536;37.664;2023-02-28T03:26:33;4.10;;;2.73;;
35693;SDS011;21812;55.536;37.664;2023-02-28T03:29:08;3.40;;;2.27;;
35693;SDS011;21812;55.536;37.664;2023-02-28T03:32:11;4.47;;;2.90;;
35693;SDS011;21812;55.536;37.664;2023-02-28T03:34:41;4.57;;;2.77;;
35693;SDS011;21812;55.536;37.664;2023-02-28T03:37:14;4.77;;;2.90;;
35693;SDS011;21812;55.536;37.664;2023-02-28T03:39:43;4.93;;;3.20;;
35693;SDS011;21812;55.536;37.664;2023-02-28T03:42:23;5.23;;;2.73;;
35693;SDS011;21812;55.536;37.664;2023-02-28T03:44:59;4.63;;;2.43;;
35693;SDS011;21812;55.536;37.664;2023-02-28T03:50:07;3.90;;;3.07;;
35693;SDS011;21812;55.536;37.664;2023-02-28T03:52:35;3.37;;;2.27;;
35693;SDS011;21812;55.536;37.664;2023-02-28T03:55:09;6.32;;;3.03;;
35693;SDS011;21812;55.536;37.664;2023-02-28T03:57:40;3.87;;;2.70;;
35693;SDS011;21812;55.536;37.664;2023-02-28T04:00:12;5.27;;;2.47;;
35693;SDS011;21812;55.536;37.664;2023-02-28T04:02:40;3.78;;;2.22;;
35693;SDS011;21812;55.536;37.664;2023-02-28T04:05:06;4.10;;;2.60;;
35693;SDS011;21812;55.536;37.664;2023-02-28T04:07:32;5.20;;;3.37;;
35693;SDS011;21812;55.536;37.664;2023-02-28T04:09:58;5.13;;;3.67;;
35693;SDS011;21812;55.536;37.664;2023-02-28T04:12:24;4.30;;;2.00;;
35693;SDS011;21812;55.536;37.664;2023-02-28T04:14:50;4.83;;;2.37;;
35693;SDS011;21812;55.536;37.664;2023-02-28T04:17:16;4.90;;;2.70;;
35693;SDS011;21812;55.536;37.664;2023-02-28T04:19:42;4.60;;;3.40;;
35693;SDS011;21812;55.536;37.664;2023-02-28T04:22:08;4.70;;;3.20;;
35693;SDS011;21812;55.536;37.664;2023-02-28T04:24:34;4.23;;;3.10;;
35693;SDS011;21812;55.536;37.664;2023-02-28T04:27:01;6.87;;;3.47;;
35693;SDS011;21812;55.536;37.664;2023-02-28T04:29:30;5.03;;;2.67;;
35693;SDS011;21812;55.536;37.664;2023-02-28T04:31:58;6.37;;;3.50;;
35693;SDS011;21812;55.536;37.664;2023-02-28T04:34:26;3.07;;;2.53;;
35693;SDS011;21812;55.536;37.664;2023-02-28T04:36:52;5.43;;;3.00;;
35693;SDS011;21812;55.536;37.664;2023-02-28T04:39:21;4.70;;;2.53;;
35693;SDS011;21812;55.536;37.664;2023-02-28T04:41:48;4.83;;;2.73;;
35693;SDS011;21812;55.536;37.664;2023-02-28T04:44:15;6.77;;;2.90;;
35693;SDS011;21812;55.536;37.664;2023-02-28T04:46:41;4.43;;;3.13;;
35693;SDS011;21812;55.536;37.664;2023-02-28T04:49:08;4.50;;;2.77;;
35693;SDS011;21812;55.536;37.664;2023-02-28T04:51:37;3.10;;;2.27;;
35693;SDS011;21812;55.536;37.664;2023-02-28T04:54:02;4.77;;;2.67;;
35693;SDS011;21812;55.536;37.664;2023-02-28T04:56:28;4.40;;;2.77;;
35693;SDS011;21812;55.536;37.664;2023-02-28T04:58:54;5.07;;;2.50;;
35693;SDS011;21812;55.536;37.664;2023-02-28T05:01:24;5.27;;;2.80;;
35693;SDS011;21812;55.536;37.664;2023-02-28T05:03:52;5.23;;;2.77;;
35693;SDS011;21812;55.536;37.664;2023-02-28T05:06:20;5.10;;;2.80;;
35693;SDS011;21812;55.536;37.664;2023-02-28T05:08:46;4.97;;;2.27;;
35693;SDS011;21812;55.536;37.664;2023-02-28T05:11:17;5.67;;;2.93;;
35693;SDS011;21812;55.536;37.664;2023-02-28T05:13:48;4.37;;;3.20;;
35693;SDS011;21812;55.536;37.664;2023-02-28T05:16:15;5.53;;;2.37;;
35693;SDS011;21812;55.536;37.664;2023-02-28T05:18:41;3.93;;;2.83;;
35693;SDS011;21812;55.536;37.664;2023-02-28T05:21:15;5.03;;;2.83;;
35693;SDS011;21812;55.536;37.664;2023-02-28T05:23:49;5.93;;;2.80;;
35693;SDS011;21812;55.536;37.664;2023-02-28T05:26:15;7.47;;;3.53;;
35693;SDS011;21812;55.536;37.664;2023-02-28T05:28:40;4.37;;;2.73;;
35693;SDS011;21812;55.536;37.664;2023-02-28T05:31:07;5.53;;;2.70;;
35693;SDS011;21812;55.536;37.664;2023-02-28T05:33:35;4.03;;;2.67;;
35693;SDS011;21812;55.536;37.664;2023-02-28T05:36:01;4.67;;;2.33;;
35693;SDS011;21812;55.536;37.664;2023-02-28T05:38:27;6.37;;;2.70;;
35693;SDS011;21812;55.536;37.664;2023-02-28T05:40:52;4.10;;;2.50;;
35693;SDS011;21812;55.536;37.664;2023-02-28T05:43:18;6.10;;;2.70;;
35693;SDS011;21812;55.536;37.664;2023-02-28T05:45:44;4.67;;;2.20;;
35693;SDS011;21812;55.536;37.664;2023-02-28T05:48:09;7.57;;;3.23;;
35693;SDS011;21812;55.536;37.664;2023-02-28T05:50:35;3.57;;;2.33;;
35693;SDS011;21812;55.536;37.664;2023-02-28T05:53:01;4.40;;;2.30;;
35693;SDS011;21812;55.536;37.664;2023-02-28T05:55:27;3.83;;;2.30;;
35693;SDS011;21812;55.536;37.664;2023-02-28T05:57:53;3.97;;;2.83;;
35693;SDS011;21812;55.536;37.664;2023-02-28T06:00:18;6.33;;;2.77;;
35693;SDS011;21812;55.536;37.664;2023-02-28T06:02:44;7.43;;;2.43;;
35693;SDS011;21812;55.536;37.664;2023-02-28T06:05:13;4.93;;;2.93;;
35693;SDS011;21812;55.536;37.664;2023-02-28T06:07:39;5.07;;;2.63;;
35693;SDS011;21812;55.536;37.664;2023-02-28T06:10:05;5.80;;;2.43;;
35693;SDS011;21812;55.536;37.664;2023-02-28T06:12:31;4.53;;;2.30;;
35693;SDS011;21812;55.536;37.664;2023-02-28T06:14:56;3.90;;;2.93;;
35693;SDS011;21812;55.536;37.664;2023-02-28T06:17:22;10.47;;;3.57;;
35693;SDS011;21812;55.536;37.664;2023-02-28T06:19:48;4.47;;;2.70;;
35693;SDS011;21812;55.536;37.664;2023-02-28T06:22:13;4.63;;;2.17;;
35693;SDS011;21812;55.536;37.664;2023-02-28T06:24:39;3.37;;;1.97;;
35693;SDS011;21812;55.536;37.664;2023-02-28T06:27:05;4.67;;;2.17;;
35693;SDS011;21812;55.536;37.664;2023-02-28T06:29:31;3.80;;;2.30;;
35693;SDS011;21812;55.536;37.664;2023-02-28T06:31:57;5.37;;;2.73;;
35693;SDS011;21812;55.536;37.664;2023-02-28T06:34:23;5.10;;;2.30;;
35693;SDS011;21812;55.536;37.664;2023-02-28T06:36:50;4.10;;;2.30;;
35693;SDS011;21812;55.536;37.664;2023-02-28T06:39:18;5.47;;;2.23;;
35693;SDS011;21812;55.536;37.664;2023-02-28T06:41:44;3.63;;;2.03;;
35693;SDS011;21812;55.536;37.664;2023-02-28T06:44:17;3.20;;;2.20;;
35693;SDS011;21812;55.536;37.664;2023-02-28T06:46:43;5.27;;;2.20;;
35693;SDS011;21812;55.536;37.664;2023-02-28T06:49:10;7.70;;;2.30;;
35693;SDS011;21812;55.536;37.664;2023-02-28T06:51:37;2.17;;;1.87;;
35693;SDS011;21812;55.536;37.664;2023-02-28T06:54:05;3.87;;;2.40;;
35693;SDS011;21812;55.536;37.664;2023-02-28T06:56:34;2.77;;;1.60;;
35693;SDS011;21812;55.536;37.664;2023-02-28T06:59:00;4.83;;;2.03;;
35693;SDS011;21812;55.536;37.664;2023-02-28T07:01:26;6.77;;;2.70;;
35693;SDS011;21812;55.536;37.664;2023-02-28T07:03:53;4.20;;;2.83;;
35693;SDS011;21812;55.536;37.664;2023-02-28T07:06:20;9.50;;;3.87;;
35693;SDS011;21812;55.536;37.664;2023-02-28T07:08:48;7.97;;;3.20;;
35693;SDS011;21812;55.536;37.664;2023-02-28T07:11:14;3.87;;;2.37;;
35693;SDS011;21812;55.536;37.664;2023-02-28T07:13:40;5.87;;;3.20;;
35693;SDS011;21812;55.536;37.664;2023-02-28T07:16:06;3.47;;;2.40;;
35693;SDS011;21812;55.536;37.664;2023-02-28T07:18:34;3.77;;;2.37;;
35693;SDS011;21812;55.536;37.664;2023-02-28T07:21:05;4.17;;;1.73;;
35693;SDS011;21812;55.536;37.664;2023-02-28T07:23:33;2.30;;;1.80;;
35693;SDS011;21812;55.536;37.664;2023-02-28T07:25:59;2.53;;;1.70;;
35693;SDS011;21812;55.536;37.664;2023-02-28T07:28:25;2.70;;;1.90;;
35693;SDS011;21812;55.536;37.664;2023-02-28T07:30:50;4.43;;;1.90;;
35693;SDS011;21812;55.536;37.664;2023-02-28T07:33:16;3.17;;;2.07;;
35693;SDS011;21812;55.536;37.664;2023-02-28T07:35:42;4.50;;;2.60;;
35693;SDS011;21812;55.536;37.664;2023-02-28T07:38:07;3.83;;;1.80;;
35693;SDS011;21812;55.536;37.664;2023-02-28T07:40:34;3.73;;;2.60;;
35693;SDS011;21812;55.536;37.664;2023-02-28T07:43:00;4.13;;;1.90;;
35693;SDS011;21812;55.536;37.664;2023-02-28T07:45:26;4.63;;;2.47;;
35693;SDS011;21812;55.536;37.664;2023-02-28T07:47:54;3.17;;;1.60;;
35693;SDS011;21812;55.536;37.664;2023-02-28T07:50:20;3.33;;;2.30;;
35693;SDS011;21812;55.536;37.664;2023-02-28T07:52:46;5.67;;;2.67;;
35693;SDS011;21812;55.536;37.664;2023-02-28T07:55:12;3.27;;;2.13;;
35693;SDS011;21812;55.536;37.664;2023-02-28T07:57:39;4.00;;;2.33;;
35693;SDS011;21812;55.536;37.664;2023-02-28T08:00:06;5.67;;;3.07;;
35693;SDS011;21812;55.536;37.664;2023-02-28T08:02:39;4.20;;;1.87;;
35693;SDS011;21812;55.536;37.664;2023-02-28T08:05:05;3.20;;;1.83;;
35693;SDS011;21812;55.536;37.664;2023-02-28T08:07:31;5.13;;;2.13;;
35693;SDS011;21812;55.536;37.664;2023-02-28T08:09:58;6.10;;;3.03;;
35693;SDS011;21812;55.536;37.664;2023-02-28T08:12:24;5.07;;;2.20;;
35693;SDS011;21812;55.536;37.664;2023-02-28T08:14:49;5.63;;;2.57;;
35693;SDS011;21812;55.536;37.664;2023-02-28T08:17:15;4.83;;;2.87;;
35693;SDS011;21812;55.536;37.664;2023-02-28T08:19:40;4.43;;;2.57;;
35693;SDS011;21812;55.536;37.664;2023-02-28T08:22:06;5.20;;;3.07;;
35693;SDS011;21812;55.536;37.664;2023-02-28T08:24:32;4.03;;;2.10;;
35693;SDS011;21812;55.536;37.664;2023-02-28T08:26:58;5.17;;;2.90;;
35693;SDS011;21812;55.536;37.664;2023-02-28T08:29:24;4.50;;;2.37;;
35693;SDS011;21812;55.536;37.664;2023-02-28T08:31:50;4.53;;;2.77;;
35693;SDS011;21812;55.536;37.664;2023-02-28T08:34:15;5.07;;;2.93;;
35693;SDS011;21812;55.536;37.664;2023-02-28T08:36:41;6.33;;;2.97;;
35693;SDS011;21812;55.536;37.664;2023-02-28T08:39:10;5.57;;;3.10;;
35693;SDS011;21812;55.536;37.664;2023-02-28T08:41:35;2.80;;;2.07;;
35693;SDS011;21812;55.536;37.664;2023-02-28T08:44:01;5.73;;;3.10;;
35693;SDS011;21812;55.536;37.664;2023-02-28T08:46:27;9.20;;;2.63;;
35693;SDS011;21812;55.536;37.664;2023-02-28T08:48:54;4.87;;;2.33;;
35693;SDS011;21812;55.536;37.664;2023-02-28T08:51:21;4.40;;;2.53;;
35693;SDS011;21812;55.536;37.664;2023-02-28T08:54:09;5.17;;;2.67;;
35693;SDS011;21812;55.536;37.664;2023-02-28T08:56:37;3.67;;;2.43;;
35693;SDS011;21812;55.536;37.664;2023-02-28T08:59:08;4.37;;;3.07;;
35693;SDS011;21812;55.536;37.664;2023-02-28T09:01:34;7.23;;;2.63;;
35693;SDS011;21812;55.536;37.664;2023-02-28T09:04:01;4.50;;;2.13;;
35693;SDS011;21812;55.536;37.664;2023-02-28T09:06:27;3.70;;;2.10;;
35693;SDS011;21812;55.536;37.664;2023-02-28T09:08:56;6.77;;;2.30;;
35693;SDS011;21812;55.536;37.664;2023-02-28T09:11:26;5.67;;;2.40;;
35693;SDS011;21812;55.536;37.664;2023-02-28T09:13:52;4.87;;;2.60;;
35693;SDS011;21812;55.536;37.664;2023-02-28T09:16:20;4.33;;;2.20;;
35693;SDS011;21812;55.536;37.664;2023-02-28T09:18:47;6.10;;;3.17;;
35693;SDS011;21812;55.536;37.664;2023-02-28T09:21:14;4.13;;;2.43;;
35693;SDS011;21812;55.536;37.664;2023-02-28T09:23:41;4.67;;;2.60;;
35693;SDS011;21812;55.536;37.664;2023-02-28T09:26:12;4.23;;;2.53;;
35693;SDS011;21812;55.536;37.664;2023-02-28T09:28:39;4.23;;;2.67;;
35693;SDS011;21812;55.536;37.664;2023-02-28T09:31:05;6.33;;;2.40;;
35693;SDS011;21812;55.536;37.664;2023-02-28T09:33:31;4.37;;;2.73;;
35693;SDS011;21812;55.536;37.664;2023-02-28T09:35:58;5.67;;;2.63;;
35693;SDS011;21812;55.536;37.664;2023-02-28T09:38:26;3.00;;;1.63;;
35693;SDS011;21812;55.536;37.664;2023-02-28T09:40:55;3.87;;;2.77;;
35693;SDS011;21812;55.536;37.664;2023-02-28T09:43:26;4.10;;;2.27;;
35693;SDS011;21812;55.536;37.664;2023-02-28T09:48:45;3.70;;;2.20;;
35693;SDS011;21812;55.536;37.664;2023-02-28T09:54:09;6.00;;;2.33;;
35693;SDS011;21812;55.536;37.664;2023-02-28T09:56:45;5.30;;;2.63;;
35693;SDS011;21812;55.536;37.664;2023-02-28T10:05:51;4.43;;;2.30;;
35693;SDS011;21812;55.536;37.664;2023-02-28T10:08:21;3.40;;;1.77;;
35693;SDS011;21812;55.536;37.664;2023-02-28T10:10:56;9.83;;;2.57;;
35693;SDS011;21812;55.536;37.664;2023-02-28T10:13:35;4.50;;;2.27;;
35693;SDS011;21812;55.536;37.664;2023-02-28T10:16:06;4.10;;;1.97;;
35693;SDS011;21812;55.536;37.664;2023-02-28T10:18:44;2.90;;;1.83;;
35693;SDS011;21812;55.536;37.664;2023-02-28T10:21:19;2.60;;;1.77;;
35693;SDS011;21812;55.536;37.664;2023-02-28T10:23:48;3.47;;;1.93;;
35693;SDS011;21812;55.536;37.664;2023-02-28T10:26:17;4.40;;;2.70;;
35693;SDS011;21812;55.536;37.664;2023-02-28T10:28:43;6.63;;;1.97;;
35693;SDS011;21812;55.536;37.664;2023-02-28T10:31:16;4.30;;;2.73;;
35693;SDS011;21812;55.536;37.664;2023-02-28T10:33:44;3.17;;;1.93;;
35693;SDS011;21812;55.536;37.664;2023-02-28T10:36:17;4.27;;;2.37;;
35693;SDS011;21812;55.536;37.664;2023-02-28T10:38:45;3.20;;;2.30;;
35693;SDS011;21812;55.536;37.664;2023-02-28T10:43:40;4.47;;;2.30;;
35693;SDS011;21812;55.536;37.664;2023-02-28T10:51:10;3.67;;;2.00;;
35693;SDS011;21812;55.536;37.664;2023-02-28T10:53:51;4.67;;;2.77;;
35693;SDS011;21812;55.536;37.664;2023-02-28T10:56:19;10.80;;;3.00;;
35693;SDS011;21812;55.536;37.664;2023-02-28T11:04:18;8.27;;;2.20;;
35693;SDS011;21812;55.536;37.664;2023-02-28T11:09:41;3.77;;;2.20;;
35693;SDS011;21812;55.536;37.664;2023-02-28T11:12:27;3.90;;;2.30;;
35693;SDS011;21812;55.536;37.664;2023-02-28T11:15:02;3.13;;;2.20;;
35693;SDS011;21812;55.536;37.664;2023-02-28T11:17:32;3.43;;;2.20;;
35693;SDS011;21812;55.536;37.664;2023-02-28T11:20:00;3.10;;;2.00;;
35693;SDS011;21812;55.536;37.664;2023-02-28T11:22:30;3.73;;;2.20;;
35693;SDS011;21812;55.536;37.664;2023-02-28T11:25:01;4.33;;;2.97;;
35693;SDS011;21812;55.536;37.664;2023-02-28T11:29:59;4.00;;;2.30;;
35693;SDS011;21812;55.536;37.664;2023-02-28T11:32:33;6.47;;;3.00;;
35693;SDS011;21812;55.536;37.664;2023-02-28T11:37:37;4.07;;;1.90;;
35693;SDS011;21812;55.536;37.664;2023-02-28T11:40:14;6.83;;;2.37;;
35693;SDS011;21812;55.536;37.664;2023-02-28T11:47:49;4.67;;;2.10;;
35693;SDS011;21812;55.536;37.664;2023-02-28T11:51:00;2.37;;;1.97;;
35693;SDS011;21812;55.536;37.664;2023-02-28T11:53:44;3.73;;;2.10;;
35693;SDS011;21812;55.536;37.664;2023-02-28T11:56:48;3.03;;;2.50;;
35693;SDS011;21812;55.536;37.664;2023-02-28T12:05:34;1.77;;;1.40;;
35693;SDS011;21812;55.536;37.664;2023-02-28T12:13:50;3.78;;;2.28;;
35693;SDS011;21812;55.536;37.664;2023-02-28T12:19:13;6.67;;;2.43;;
35693;SDS011;21812;55.536;37.664;2023-02-28T12:22:01;3.10;;;1.97;;
35693;SDS011;21812;55.536;37.664;2023-02-28T12:27:16;3.63;;;2.63;;
35693;SDS011;21812;55.536;37.664;2023-02-28T12:29:47;4.63;;;2.20;;
35693;SDS011;21812;55.536;37.664;2023-02-28T12:37:49;4.83;;;2.23;;
35693;SDS011;21812;55.536;37.664;2023-02-28T12:40:21;3.45;;;2.63;;
35693;SDS011;21812;55.536;37.664;2023-02-28T12:42:49;4.33;;;2.73;;
35693;SDS011;21812;55.536;37.664;2023-02-28T12:45:48;4.10;;;2.43;;
35693;SDS011;21812;55.536;37.664;2023-02-28T12:48:29;5.53;;;2.43;;
35693;SDS011;21812;55.536;37.664;2023-02-28T12:51:02;3.23;;;2.30;;
35693;SDS011;21812;55.536;37.664;2023-02-28T12:53:32;4.53;;;2.30;;
35693;SDS011;21812;55.536;37.664;2023-02-28T12:56:22;3.30;;;1.90;;
35693;SDS011;21812;55.536;37.664;2023-02-28T12:59:01;4.73;;;2.47;;
35693;SDS011;21812;55.536;37.664;2023-02-28T13:10:09;3.30;;;2.57;;
35693;SDS011;21812;55.536;37.664;2023-02-28T13:12:35;3.07;;;1.80;;
35693;SDS011;21812;55.536;37.664;2023-02-28T13:15:15;4.23;;;2.53;;
35693;SDS011;21812;55.536;37.664;2023-02-28T13:17:54;4.27;;;2.43;;
35693;SDS011;21812;55.536;37.664;2023-02-28T13:20:25;3.23;;;2.37;;
35693;SDS011;21812;55.536;37.664;2023-02-28T13:22:59;3.70;;;2.37;;
35693;SDS011;21812;55.536;37.664;2023-02-28T13:27:58;8.97;;;2.60;;
35693;SDS011;21812;55.536;37.664;2023-02-28T13:44:05;3.10;;;2.43;;
35693;SDS011;21812;55.536;37.664;2023-02-28T14:00:59;4.23;;;1.93;;
35693;SDS011;21812;55.536;37.664;2023-02-28T14:03:45;2.77;;;1.80;;
35693;SDS011;21812;55.536;37.664;2023-02-28T14:06:34;3.27;;;1.60;;
35693;SDS011;21812;55.536;37.664;2023-02-28T14:11:40;5.77;;;2.23;;
35693;SDS011;21812;55.536;37.664;2023-02-28T14:14:08;2.87;;;1.87;;
35693;SDS011;21812;55.536;37.664;2023-02-28T14:16:54;2.70;;;2.37;;
35693;SDS011;21812;55.536;37.664;2023-02-28T14:19:29;2.30;;;1.67;;
35693;SDS011;21812;55.536;37.664;2023-02-28T14:30:40;3.47;;;2.10;;
35693;SDS011;21812;55.536;37.664;2023-02-28T14:38:25;2.35;;;1.95;;
35693;SDS011;21812;55.536;37.664;2023-02-28T14:40:55;3.57;;;2.33;;
35693;SDS011;21812;55.536;37.664;2023-02-28T14:43:26;2.80;;;2.00;;
35693;SDS011;21812;55.536;37.664;2023-02-28T14:45:54;2.60;;;1.70;;
35693;SDS011;21812;55.536;37.664;2023-02-28T14:48:22;2.60;;;1.87;;
35693;SDS011;21812;55.536;37.664;2023-02-28T14:50:51;3.67;;;2.50;;
35693;SDS011;21812;55.536;37.664;2023-02-28T14:53:20;2.40;;;1.80;;
35693;SDS011;21812;55.536;37.664;2023-02-28T14:55:48;2.50;;;1.80;;
35693;SDS011;21812;55.536;37.664;2023-02-28T14:58:31;7.13;;;1.90;;
35693;SDS011;21812;55.536;37.664;2023-02-28T15:00:59;2.50;;;1.75;;
35693;SDS011;21812;55.536;37.664;2023-02-28T15:05:56;3.63;;;2.33;;
35693;SDS011;21812;55.536;37.664;2023-02-28T15:08:27;4.57;;;2.10;;
35693;SDS011;21812;55.536;37.664;2023-02-28T15:10:57;5.23;;;2.67;;
35693;SDS011;21812;55.536;37.664;2023-02-28T15:13:45;3.47;;;2.20;;
35693;SDS011;21812;55.536;37.664;2023-02-28T15:16:16;3.17;;;2.07;;
35693;SDS011;21812;55.536;37.664;2023-02-28T15:18:48;4.27;;;2.33;;
35693;SDS011;21812;55.536;37.664;2023-02-28T15:21:20;5.40;;;3.27;;
35693;SDS011;21812;55.536;37.664;2023-02-28T15:23:51;3.57;;;2.80;;
35693;SDS011;21812;55.536;37.664;2023-02-28T15:26:38;4.50;;;2.77;;
35693;SDS011;21812;55.536;37.664;2023-02-28T15:29:13;4.80;;;2.30;;
35693;SDS011;21812;55.536;37.664;2023-02-28T15:31:50;4.07;;;2.67;;
35693;SDS011;21812;55.536;37.664;2023-02-28T15:34:38;6.87;;;3.03;;
35693;SDS011;21812;55.536;37.664;2023-02-28T15:45:52;3.07;;;2.23;;
35693;SDS011;21812;55.536;37.664;2023-02-28T15:48:31;2.17;;;1.40;;
35693;SDS011;21812;55.536;37.664;2023-02-28T15:53:49;2.77;;;2.20;;
35693;SDS011;21812;55.536;37.664;2023-02-28T15:56:26;3.60;;;2.07;;
35693;SDS011;21812;55.536;37.664;2023-02-28T15:59:04;3.00;;;1.73;;
35693;SDS011;21812;55.536;37.664;2023-02-28T16:01:33;3.33;;;1.90;;
35693;SDS011;21812;55.536;37.664;2023-02-28T16:04:01;4.53;;;2.43;;
35693;SDS011;21812;55.536;37.664;2023-02-28T16:06:38;7.27;;;2.60;;
35693;SDS011;21812;55.536;37.664;2023-02-28T16:09:12;2.50;;;2.00;;
35693;SDS011;21812;55.536;37.664;2023-02-28T16:11:44;4.30;;;2.53;;
35693;SDS011;21812;55.536;37.664;2023-02-28T16:14:18;3.07;;;2.10;;
35693;SDS011;21812;55.536;37.664;2023-02-28T16:16:49;3.53;;;2.37;;
35693;SDS011;21812;55.536;37.664;2023-02-28T16:19:17;3.00;;;1.90;;
35693;SDS011;21812;55.536;37.664;2023-02-28T16:21:43;2.83;;;2.00;;
35693;SDS011;21812;55.536;37.664;2023-02-28T16:24:09;3.03;;;1.83;;
35693;SDS011;21812;55.536;37.664;2023-02-28T16:26:35;3.83;;;2.30;;
35693;SDS011;21812;55.536;37.664;2023-02-28T16:29:02;3.97;;;2.37;;
35693;SDS011;21812;55.536;37.664;2023-02-28T16:31:29;2.93;;;1.90;;
35693;SDS011;21812;55.536;37.664;2023-02-28T16:33:55;3.03;;;1.87;;
35693;SDS011;21812;55.536;37.664;2023-02-28T16:36:21;5.13;;;2.20;;
35693;SDS011;21812;55.536;37.664;2023-02-28T16:38:50;3.87;;;2.07;;
35693;SDS011;21812;55.536;37.664;2023-02-28T16:41:17;2.70;;;1.57;;
35693;SDS011;21812;55.536;37.664;2023-02-28T16:43:49;2.77;;;1.80;;
35693;SDS011;21812;55.536;37.664;2023-02-28T16:46:16;3.23;;;1.90;;
35693;SDS011;21812;55.536;37.664;2023-02-28T16:48:43;3.23;;;2.67;;
35693;SDS011;21812;55.536;37.664;2023-02-28T16:51:13;4.10;;;2.03;;
35693;SDS011;21812;55.536;37.664;2023-02-28T16:53:40;3.57;;;2.33;;
35693;SDS011;21812;55.536;37.664;2023-02-28T16:56:08;3.50;;;2.03;;
35693;SDS011;21812;55.536;37.664;2023-02-28T16:58:47;2.40;;;1.70;;
35693;SDS011;21812;55.536;37.664;2023-02-28T17:01:14;2.07;;;1.87;;
35693;SDS011;21812;55.536;37.664;2023-02-28T17:03:40;2.87;;;2.23;;
35693;SDS011;21812;55.536;37.664;2023-02-28T17:06:12;2.77;;;1.60;;
35693;SDS011;21812;55.536;37.664;2023-02-28T17:08:47;2.80;;;2.00;;
35693;SDS011;21812;55.536;37.664;2023-02-28T17:11:16;4.57;;;2.57;;
35693;SDS011;21812;55.536;37.664;2023-02-28T17:13:43;3.73;;;2.30;;
35693;SDS011;21812;55.536;37.664;2023-02-28T17:16:11;2.97;;;2.30;;
35693;SDS011;21812;55.536;37.664;2023-02-28T17:18:46;2.13;;;1.50;;
35693;SDS011;21812;55.536;37.664;2023-02-28T17:21:13;3.13;;;1.90;;
35693;SDS011;21812;55.536;37.664;2023-02-28T17:23:40;3.53;;;2.10;;
35693;SDS011;21812;55.536;37.664;2023-02-28T17:26:05;3.83;;;1.97;;
35693;SDS011;21812;55.536;37.664;2023-02-28T17:28:31;3.03;;;1.83;;
35693;SDS011;21812;55.536;37.664;2023-02-28T17:30:57;2.63;;;1.90;;
35693;SDS011;21812;55.536;37.664;2023-02-28T17:33:23;3.37;;;1.93;;
35693;SDS011;21812;55.536;37.664;2023-02-28T17:35:49;3.83;;;2.27;;
35693;SDS011;21812;55.536;37.664;2023-02-28T17:38:18;6.43;;;1.70;;
35693;SDS011;21812;55.536;37.664;2023-02-28T17:40:44;2.50;;;1.70;;
35693;SDS011;21812;55.536;37.664;2023-02-28T17:43:10;3.40;;;1.83;;